Terminal Aerodrome Forecast
Issued by NWS Houston/Galveston, TX

Home | Current Version | Previous Version | Text Only | Print | Product List | Glossary On
Versions: 1 2 3 4 5 6 7 8 9 10 11 12 13 14 15 16
000
FTUS44 KHGX 201724
TAFGLS
TAF
KGLS 201724Z 2018/2118 14008KT P6SM SCT027
     FM211100 13006KT P6SM VCSH SCT020 SCT250
     FM211600 12009KT P6SM SCT025 SCT250=

USA.gov is the U.S. government's official web portal to all federal, state and local government web resources and services.